Time;durP1;ratioP1;P1;durP2;ratioP2;P2;SDS_P1;SDS_P2;PMS_P1;PMS_P2;Temp;Humidity;BMP_temperature;BMP_pressure;BME280_temperature;BME280_humidity;BME280_pressure;Samples;Min_cycle;Max_cycle;Signal;HPM_P1;HPM_P2
2021/11/05 13:13:58;;;;;;;35.23;12.97;;;;;;;7.84;100.00;100769.56;5322365;54;46172;-76
2021/11/05 13:19:07;;;;;;;14.03;8.47;;;;;;;7.74;100.00;100779.36;5091638;57;1136873;-76
2021/11/05 13:24:13;;;;;;;11.93;7.73;;;;;;;7.72;100.00;100791.77;5065086;58;1139207;-82
2021/11/05 13:29:29;;;;;;;9.30;6.77;;;;;;;7.70;100.00;100794.11;5157726;56;1139077;-81
2021/11/05 13:34:39;;;;;;;11.73;7.03;;;;;;;7.65;100.00;100804.06;5102582;56;1136945;-82
2021/11/05 13:39:45;;;;;;;12.43;6.43;;;;;;;7.62;100.00;100803.81;5059364;58;1139178;-87
2021/11/05 13:45:16;;;;;;;17.33;8.23;;;;;;;7.64;100.00;100817.70;5051712;58;1139041;-79
2021/11/05 13:50:24;;;;;;;11.97;7.60;;;;;;;7.60;100.00;100822.80;5119359;57;1139089;-80
2021/11/05 13:55:34;;;;;;;8.07;6.10;;;;;;;7.59;100.00;100830.78;5090851;56;1136985;-78
2021/11/05 14:00:43;;;;;;;8.10;5.77;;;;;;;7.58;100.00;100842.25;5120299;57;21212;-81
2021/11/05 14:05:49;;;;;;;11.80;6.42;;;;;;;7.58;100.00;100842.25;5104409;57;1134873;-81
2021/11/05 14:11:00;;;;;;;10.17;7.00;;;;;;;7.56;100.00;100854.17;5079770;56;1140504;-77
2021/11/05 14:16:13;;;;;;;9.93;7.07;;;;;;;7.59;100.00;100854.47;5007124;57;1141397;-79
2021/11/05 14:21:23;;;;;;;;;;;;;;;7.60;100.00;100862.75;5068335;56;1139234;-81
2021/11/05 14:26:28;;;;;;;10.73;7.87;;;;;;;7.61;100.00;100863.97;5212600;56;976484;-79
2021/11/05 14:32:05;;;;;;;10.73;6.90;;;;;;;7.62;100.00;100868.77;5203808;56;1139175;-75
2021/11/05 14:37:14;;;;;;;8.63;6.60;;;;;;;7.61;100.00;100866.61;5113508;57;1140530;-76
2021/11/05 14:42:24;;;;;;;30.67;23.70;;;;;;;7.64;100.00;100876.08;5085155;57;1138978;-76
2021/11/05 14:47:40;;;;;;;29.43;24.37;;;;;;;7.65;100.00;100881.72;5024926;58;1142706;-77
2021/11/05 14:53:02;;;;;;;22.60;13.20;;;;;;;7.65;100.00;100883.04;5059896;58;1143297;-77
2021/11/05 14:58:29;;;;;;;34.97;20.13;;;;;;;7.63;100.00;100881.84;5116707;57;1143252;-76
2021/11/05 15:03:47;;;;;;;129.80;59.10;;;;;;;7.62;100.00;100890.67;5111454;57;1143302;-77
2021/11/05 15:08:54;;;;;;;156.30;71.30;;;;;;;7.60;100.00;100894.33;5080721;57;1145351;-77
2021/11/05 15:14:00;;;;;;;108.43;53.90;;;;;;;7.60;100.00;100904.86;5163680;57;1145281;-75
2021/11/05 15:19:06;;;;;;;32.33;17.03;;;;;;;7.60;100.00;100911.44;5148344;57;1145343;-77
2021/11/05 15:24:12;;;;;;;312.93;112.27;;;;;;;7.58;100.00;100912.00;5139470;57;1143173;-78
2021/11/05 15:29:17;;;;;;;133.97;60.10;;;;;;;7.59;100.00;100915.86;5138802;57;1147323;-79
2021/11/05 15:34:23;;;;;;;172.00;75.20;;;;;;;7.61;100.00;100923.66;5099828;57;1143247;-81
2021/11/05 15:39:28;;;;;;;174.10;86.42;;;;;;;7.61;100.00;100923.66;5105867;57;1143152;-79
2021/11/05 15:44:34;;;;;;;70.30;40.67;;;;;;;7.62;100.00;100938.06;5045953;57;1143222;-79
2021/11/05 15:49:40;;;;;;;21.30;13.93;;;;;;;7.60;100.00;100945.66;5114837;57;1141040;-79
2021/11/05 15:54:46;;;;;;;15.17;7.27;;;;;;;7.58;100.00;100958.91;5061118;57;1141084;-81
2021/11/05 15:59:51;;;;;;;19.80;10.45;;;;;;;7.58;100.00;100964.64;5124128;57;1139071;-78
2021/11/05 16:04:57;;;;;;;9.97;5.43;;;;;;;7.57;100.00;100973.00;5095684;57;1141387;-79
2021/11/05 16:10:06;;;;;;;18.47;7.90;;;;;;;7.57;100.00;100981.37;5084477;57;1137070;-81
2021/11/05 16:15:17;;;;;;;15.67;6.77;;;;;;;7.56;100.00;100986.25;5121999;57;1139017;-84
2021/11/05 16:20:26;;;;;;;12.70;5.50;;;;;;;7.50;100.00;100980.86;5023852;57;1138890;-83
2021/11/05 16:25:33;;;;;;;17.07;8.10;;;;;;;7.53;100.00;101001.74;4945051;58;1139008;-84
2021/11/05 16:30:39;;;;;;;21.73;8.50;;;;;;;7.51;100.00;101008.88;5131973;57;1138942;-78
2021/11/05 16:35:47;;;;;;;41.83;12.30;;;;;;;7.51;100.00;101014.14;5106331;57;1139083;-81
2021/11/05 16:40:52;;;;;;;8.03;4.43;;;;;;;7.48;100.00;101021.39;5169870;57;1140375;-81
2021/11/05 16:45:58;;;;;;;318.83;113.60;;;;;;;7.46;100.00;101025.88;5162819;57;1136913;-81
2021/11/05 16:51:04;;;;;;;314.20;102.50;;;;;;;7.45;99.83;101040.83;5151214;57;1145408;-83
2021/11/05 16:56:12;;;;;;;331.73;109.13;;;;;;;7.47;98.91;101041.59;5185403;56;1141142;-83
2021/11/05 17:01:22;;;;;;;106.10;39.05;;;;;;;7.49;98.42;101044.95;5172769;56;1145213;-81
2021/11/05 17:06:27;;;;;;;157.60;61.37;;;;;;;7.50;98.24;101051.07;5183016;56;1143112;-80
2021/11/05 17:11:33;;;;;;;34.63;15.47;;;;;;;7.48;98.36;101049.02;5186791;56;1143021;-80
2021/11/05 17:16:40;;;;;;;21.00;9.70;;;;;;;7.48;98.50;101048.55;5195584;56;1140513;-80
2021/11/05 17:21:46;;;;;;;11.57;6.83;;;;;;;7.48;98.22;101060.86;5187785;56;1138956;-80
2021/11/05 17:26:52;;;;;;;13.13;6.17;;;;;;;7.48;98.12;101066.98;5227809;56;1138924;-80
2021/11/05 17:31:58;;;;;;;7.50;4.87;;;;;;;7.47;97.77;101068.38;5223461;56;1138950;-80
2021/11/05 17:37:04;;;;;;;14.47;5.80;;;;;;;7.45;97.56;101071.09;5158185;56;1136863;-81
2021/11/05 17:42:10;;;;;;;13.23;6.77;;;;;;;7.44;97.81;101082.55;5227641;56;1139155;-82
2021/11/05 17:47:15;;;;;;;9.97;5.33;;;;;;;7.44;97.53;101079.91;5214102;56;1138949;-82
2021/11/05 17:52:21;;;;;;;11.87;5.70;;;;;;;7.44;97.11;101088.28;5141747;57;1136810;-82
2021/11/05 17:57:30;;;;;;;11.23;4.40;;;;;;;7.44;97.28;101093.54;5141852;57;1138957;-82
2021/11/05 18:02:35;;;;;;;9.80;3.93;;;;;;;7.46;97.14;101102.20;5138361;57;1139166;-83
2021/11/05 18:07:41;;;;;;;4.33;3.93;;;;;;;7.45;97.41;101100.50;5110628;57;1137059;-83
2021/11/05 18:12:47;;;;;;;6.27;2.90;;;;;;;7.46;97.38;101108.78;5106653;57;1137040;-83
2021/11/05 18:17:53;;;;;;;20.97;8.00;;;;;;;7.47;97.54;101110.48;5117064;57;1137164;-82
2021/11/05 18:22:59;;;;;;;11.83;4.53;;;;;;;7.47;97.67;101111.33;5131724;57;1138907;-82
2021/11/05 18:28:06;;;;;;;5.90;3.50;;;;;;;7.46;97.79;101117.53;5154975;57;1139063;-84
2021/11/05 18:33:12;;;;;;;9.57;4.10;;;;;;;7.47;97.78;101127.12;5154803;57;1136879;-84
2021/11/05 18:38:17;;;;;;;10.93;4.60;;;;;;;7.44;97.81;101120.70;5154743;56;1136809;-84
2021/11/05 18:43:23;;;;;;;7.17;3.57;;;;;;;7.44;98.13;101122.48;5131940;57;1139006;-83
2021/11/05 18:48:29;;;;;;;7.83;3.87;;;;;;;7.45;98.26;101123.72;5108025;57;1136998;-83
2021/11/05 18:53:35;;;;;;;15.07;5.50;;;;;;;7.46;98.42;101135.95;5127227;57;1136819;-84
2021/11/05 18:58:42;;;;;;;5.20;3.90;;;;;;;7.47;98.60;101131.54;5108192;57;1139106;-84
2021/11/05 19:03:48;;;;;;;17.02;5.37;;;;;;;7.49;98.62;101137.53;5071815;58;1136991;-82
2021/11/05 19:08:54;;;;;;;9.80;2.83;;;;;;;7.50;98.75;101133.97;5071862;58;1138968;-83
2021/11/05 19:13:59;;;;;;;10.43;3.83;;;;;;;7.49;99.03;101146.28;5071851;57;1136811;-83
2021/11/05 19:19:07;;;;;;;8.87;4.00;;;;;;;7.50;99.47;101148.45;5032827;58;1139175;-80
2021/11/05 19:24:13;;;;;;;6.27;3.20;;;;;;;7.50;99.74;101154.56;4973915;59;1137240;-82
2021/11/05 19:29:26;;;;;;;17.65;6.22;;;;;;;7.51;100.00;101169.89;4963592;59;1136882;-82
2021/11/05 19:34:27;;;;;;;14.67;6.07;;;;;;;7.50;100.00;101170.82;4963081;58;1141097;-82
2021/11/05 19:39:32;;;;;;;8.93;5.10;;;;;;;7.50;100.00;101160.30;4980259;58;1141051;-82
2021/11/05 19:44:38;;;;;;;8.90;4.17;;;;;;;7.52;100.00;101172.44;5004452;58;1138459;-82
2021/11/05 19:49:47;;;;;;;5.40;3.53;;;;;;;7.54;100.00;101175.84;5068272;57;1138925;-82
2021/11/05 19:54:51;;;;;;;5.93;3.87;;;;;;;7.55;100.00;101174.06;5128139;57;1138544;-83
2021/11/05 19:59:58;;;;;;;8.57;4.30;;;;;;;7.55;100.00;101176.70;5163701;56;1138925;-85
2021/11/05 20:05:07;;;;;;;12.33;5.37;;;;;;;7.59;100.00;101175.60;5163877;56;1138420;-87
2021/11/05 20:10:13;;;;;;;12.23;6.17;;;;;;;7.56;100.00;101183.20;5139369;56;1141030;-88
2021/11/05 20:15:20;;;;;;;7.63;5.17;;;;;;;7.62;100.00;101188.14;5079735;57;1138267;-82
2021/11/05 20:20:26;;;;;;;9.13;5.90;;;;;;;7.65;100.00;101188.41;5079500;57;1137044;-85
2021/11/05 20:25:36;;;;;;;10.73;5.80;;;;;;;7.65;100.00;101196.31;5119254;57;1136173;-88
2021/11/05 20:30:45;;;;;;;9.80;5.03;;;;;;;7.67;100.00;101191.35;5155994;57;1139018;-86
2021/11/05 20:35:52;;;;;;;8.05;5.37;;;;;;;7.70;100.00;101199.55;5155658;57;1136937;-85
2021/11/05 20:40:58;;;;;;;14.63;5.87;;;;;;;7.72;100.00;101205.59;5155922;57;1136918;-87
2021/11/05 20:46:06;;;;;;;10.20;6.30;;;;;;;7.73;100.00;101200.23;5194108;56;1139063;-82
2021/11/05 20:51:12;;;;;;;13.67;7.87;;;;;;;7.76;100.00;101206.66;5177713;56;1139019;-86
2021/11/05 20:56:21;;;;;;;12.93;5.73;;;;;;;7.80;100.00;101206.47;5229708;56;1138981;-84
2021/11/05 21:01:27;;;;;;;7.60;5.20;;;;;;;7.81;100.00;101212.12;5140753;56;1138944;-85
2021/11/05 21:06:34;;;;;;;9.97;6.37;;;;;;;7.82;100.00;101206.77;5122523;57;1137106;-83
2021/11/05 21:11:40;;;;;;;8.10;5.10;;;;;;;7.86;100.00;101214.05;5162538;57;1136950;-87
2021/11/05 21:16:46;;;;;;;12.97;5.83;;;;;;;7.87;100.00;101235.03;5121800;56;1136795;-81
2021/11/05 21:21:52;;;;;;;11.67;6.97;;;;;;;7.86;100.00;101229.38;5148238;57;1138260;-85
2021/11/05 21:26:59;;;;;;;9.37;6.13;;;;;;;7.88;100.00;101236.73;5105333;57;1139091;-83
2021/11/05 21:32:05;;;;;;;15.27;8.43;;;;;;;7.89;100.00;101244.17;5082556;57;1134846;-83
2021/11/05 21:37:11;;;;;;;7.23;5.57;;;;;;;7.90;100.00;101244.09;5083985;57;1136933;-83
2021/11/05 21:42:18;;;;;;;10.00;5.93;;;;;;;7.88;100.00;101247.73;5088937;57;1138918;-82
2021/11/05 21:47:26;;;;;;;9.93;5.97;;;;;;;7.84;100.00;101252.31;5084241;57;1140988;-82
2021/11/05 21:52:31;;;;;;;9.67;6.77;;;;;;;7.81;100.00;101251.62;5084887;57;1138969;-83
2021/11/05 21:57:38;;;;;;;12.07;7.13;;;;;;;7.78;100.00;101261.03;5136936;56;1138826;-83
2021/11/05 22:02:44;;;;;;;11.57;7.60;;;;;;;7.81;100.00;101260.83;5131741;56;1141102;-83
2021/11/05 22:07:51;;;;;;;13.43;6.37;;;;;;;7.82;100.00;101269.12;5150332;56;1141080;-81
2021/11/05 22:12:57;;;;;;;12.13;8.10;;;;;;;7.86;100.00;101270.20;5095642;57;1140973;-81
2021/11/05 22:18:04;;;;;;;12.20;7.23;;;;;;;7.88;100.00;101282.82;5080191;57;1141235;-81
2021/11/05 22:23:10;;;;;;;15.53;8.10;;;;;;;7.90;100.00;101277.01;5080223;57;1141349;-81
2021/11/05 22:28:16;;;;;;;12.73;8.37;;;;;;;7.92;100.00;101276.92;5080375;57;1141126;-82
2021/11/05 22:33:22;;;;;;;13.40;7.40;;;;;;;7.92;100.00;101272.52;5080146;57;1141329;-81
2021/11/05 22:38:28;;;;;;;8.90;7.03;;;;;;;7.94;100.00;101281.19;5080141;57;1141044;-81
2021/11/05 22:43:34;;;;;;;16.27;6.67;;;;;;;7.94;100.00;101277.70;5079979;57;1138988;-81
2021/11/05 22:48:40;;;;;;;11.60;7.33;;;;;;;7.95;100.00;101293.39;5153385;57;1141299;-82
2021/11/05 22:53:46;;;;;;;10.13;7.17;;;;;;;7.97;100.00;101290.67;5131640;57;1141036;-81
2021/11/05 22:58:52;;;;;;;12.17;7.00;;;;;;;7.96;100.00;101295.09;5154740;56;1141185;-81
2021/11/05 23:03:58;;;;;;;13.88;7.58;;;;;;;7.98;100.00;101298.50;5128233;56;1140967;-80
2021/11/05 23:09:09;;;;;;;9.23;6.53;;;;;;;8.00;100.00;101302.37;5027249;58;1141416;-80
2021/11/05 23:14:15;;;;;;;9.77;6.77;;;;;;;8.00;100.00;101293.15;5048609;57;1138979;-81
2021/11/05 23:19:21;;;;;;;13.53;6.97;;;;;;;7.99;100.00;101296.25;5048478;58;1139010;-81
2021/11/05 23:24:27;;;;;;;9.83;5.07;;;;;;;7.97;100.00;101294.16;5048328;57;1141237;-81
2021/11/05 23:29:33;;;;;;;10.70;6.83;;;;;;;7.96;100.00;101296.41;5106685;57;1138999;-81
2021/11/05 23:34:39;;;;;;;16.97;7.57;;;;;;;7.95;100.00;101299.13;5110383;58;1141101;-81
2021/11/05 23:39:44;;;;;;;6.40;4.93;;;;;;;7.94;100.00;101298.30;5110521;58;1141108;-82
2021/11/05 23:44:50;;;;;;;7.95;5.08;;;;;;;7.91;100.00;101298.47;5110425;58;1138955;-82
2021/11/05 23:49:56;;;;;;;9.10;5.60;;;;;;;7.88;100.00;101314.89;5110524;57;1139011;-81
2021/11/05 23:55:05;;;;;;;7.73;5.20;;;;;;;7.84;100.00;101312.88;4966151;58;1138970;-81
